WetterOnline ( https://www.wetteronline.at )

Wetter aktuell Fehmarn

Aktuelles Wetter: Westermarkelsdorf (9m)

6-stündlich | Neueste Meldungen
Ortszeit Temperatur Wetter
Mo, 16.09. 20:00 14.8° C fast wolkenlos
Mo, 16.09. 14:00 14.6° C wolkig
Mo, 16.09. 8:00 13.7° C leicht bewölkt
Mo, 16.09. 2:00 14.0° C wolkenlos
So, 15.09. 20:00 15.3° C wolkig
So, 15.09. 14:00 16.9° C bewölkt
So, 15.09. 8:00 15.1° C -
So, 15.09. 2:00 14.8° C wolkig
Ortszeit Temperatur Wetter
Mo, 16.09. 23:40 13.8° C wolkig
Mo, 16.09. 23:30 14.0° C bedeckt
Mo, 16.09. 23:20 14.0° C bedeckt
Mo, 16.09. 23:10 13.9° C bedeckt
Mo, 16.09. 23:00 14.0° C wolkig
Mo, 16.09. 22:50 14.0° C wolkig
Mo, 16.09. 22:30 14.0° C leicht bewölkt
Mo, 16.09. 22:00 14.1° C wolkig
Mo, 16.09. 21:30 14.2° C wolkig
Mo, 16.09. 21:00 14.4° C leicht bewölkt
Mo, 16.09. 20:30 14.5° C fast wolkenlos
Ortszeit Relative Feuchte Sichtweite
Mo, 16.09. 20:00 65% 40 km
Mo, 16.09. 14:00 67% 26 km
Mo, 16.09. 8:00 65% 26 km
Mo, 16.09. 2:00 68% 22 km
So, 15.09. 20:00 67% 24 km
So, 15.09. 14:00 84% 30 km
So, 15.09. 8:00 66% 50 km
So, 15.09. 2:00 71% 60 km
Ortszeit Relative Feuchte Sichtweite
Mo, 16.09. 23:40 68% -
Mo, 16.09. 23:30 72% 35 km
Mo, 16.09. 23:20 72% -
Mo, 16.09. 23:10 68% -
Mo, 16.09. 23:00 69% 35 km
Mo, 16.09. 22:50 69% -
Mo, 16.09. 22:30 69% 35 km
Mo, 16.09. 22:00 67% 35 km
Mo, 16.09. 21:30 67% 35 km
Mo, 16.09. 21:00 65% 40 km
Mo, 16.09. 20:30 64% 45 km
Ortszeit Niederschlagsmenge Niederschlagsart
Mo, 16.09. 20:00 0.0 l/m2 in 12 Std. -
Mo, 16.09. 14:00 0.0 l/m2 in 6 Std. -
Mo, 16.09. 8:00 0.0 l/m2 in 12 Std. -
Mo, 16.09. 2:00 0.0 l/m2 in 6 Std. -
So, 15.09. 20:00 0.1 l/m2 in 12 Std. Regen
So, 15.09. 14:00 0.1 l/m2 in 6 Std. Regen
So, 15.09. 8:00 0.0 l/m2 in 12 Std. -
So, 15.09. 2:00 0.0 l/m2 in 6 Std. -
Ortszeit Niederschlagsmenge Niederschlagsart
Mo, 16.09. 23:40 keine Meldung -
Mo, 16.09. 23:30 0.0 l/m2 in 1 Std. -
Mo, 16.09. 23:20 keine Meldung -
Mo, 16.09. 23:10 keine Meldung -
Mo, 16.09. 23:00 0.0 l/m2 in 1 Std. -
Mo, 16.09. 22:50 keine Meldung -
Mo, 16.09. 22:30 0.0 l/m2 in 1 Std. -
Mo, 16.09. 22:00 0.0 l/m2 in 1 Std. -
Mo, 16.09. 21:30 0.0 l/m2 in 1 Std. -
Mo, 16.09. 21:00 0.0 l/m2 in 1 Std. -
Mo, 16.09. 20:30 0.0 l/m2 in 1 Std. -
Ortszeit Stärke Spitze Richtung
km/h Bft. km/h Grad Sektor
Mo, 16.09. 20:00 41 6 56 290° W
Mo, 16.09. 14:00 33 5 52 290° W
Mo, 16.09. 8:00 40 6 61 290° W
Mo, 16.09. 2:00 48 6 67 290° W
So, 15.09. 20:00 48 6 65 290° W
So, 15.09. 14:00 50 7 65 260° W
So, 15.09. 8:00 32 5 54 230° SW
So, 15.09. 2:00 24 4 39 220° SW
Ortszeit Stärke Spitze Richtung
km/h Bft. km/h Grad Sektor
Mo, 16.09. 23:40 37 5 - 290° W
Mo, 16.09. 23:30 32 5 47 290° W
Mo, 16.09. 23:20 32 5 - 290° W
Mo, 16.09. 23:10 36 5 - 290° W
Mo, 16.09. 23:00 40 6 47 290° W
Mo, 16.09. 22:50 40 6 - 290° W
Mo, 16.09. 22:30 36 5 47 290° W
Mo, 16.09. 22:00 40 6 50 290° W
Mo, 16.09. 21:30 37 5 52 290° W
Mo, 16.09. 21:00 40 6 47 290° W
Mo, 16.09. 20:30 40 6 47 290° W
Ortszeit Untergrenze Bedeckung Gattung
total tief tief mittel hoch
Mo, 16.09. 20:00 1170 m 1/8 1/8 - - -
Mo, 16.09. 14:00 960 m 7/8 1/8 - - -
Mo, 16.09. 8:00 9000 m 5/8 0/8 - - -
Mo, 16.09. 2:00 - 0/8 0/8 - - -
So, 15.09. 20:00 990 m 7/8 1/8 - - -
So, 15.09. 14:00 990 m 7/8 7/8 - - -
So, 15.09. 8:00 - - - - - -
So, 15.09. 2:00 9000 m 8/8 0/8 - - -
Ortszeit Bedeckungsgrad in Achtel und Wolkenuntergrenze
Mo, 16.09. 23:40 6(1500m)
Mo, 16.09. 23:30 8(1500m)
Mo, 16.09. 23:20 8(1500m)
Mo, 16.09. 23:10 8(1500m)
Mo, 16.09. 23:00 2(870m) 6(1500m) 7(1500m)
Mo, 16.09. 22:50 2(870m) 6(1500m)
Mo, 16.09. 22:30 1(960m) 3(8700m) 4(8700m)
Mo, 16.09. 22:00 1(960m) 5(1500m) 5(9000m)
Mo, 16.09. 21:30 4(990m) 7(9000m)
Mo, 16.09. 21:00 1(1050m) 3(9000m) 5(9000m)
Mo, 16.09. 20:30 1(1050m) 2(9000m)
Ortszeit Luftdruck NN (hPa) Tendenz (hPa in 3 Std.)
Mo, 16.09. 20:00 1016 - 0,1
Mo, 16.09. 14:00 1017 - 0,3
Mo, 16.09. 8:00 1017 - 0,6
Mo, 16.09. 2:00 1017 + 0,2
So, 15.09. 20:00 1017 + 0,6
So, 15.09. 14:00 1016 - 0,1
So, 15.09. 8:00 1017 - 3,0
So, 15.09. 2:00 1023 - 3,0
Ortszeit Luftdruck NN (hPa) Tendenz (hPa in 3 Std.)
Mo, 16.09. 23:40 1015 keine Meldung
Mo, 16.09. 23:30 1015 - 0,5
Mo, 16.09. 23:20 1015 keine Meldung
Mo, 16.09. 23:10 1015 keine Meldung
Mo, 16.09. 23:00 1016 - 0,4
Mo, 16.09. 22:50 1016 keine Meldung
Mo, 16.09. 22:30 1016 0,0
Mo, 16.09. 22:00 1016 + 0,2
Mo, 16.09. 21:30 1016 + 0,1
Mo, 16.09. 21:00 1016 - 0,2
Mo, 16.09. 20:30 1016 - 0,2
Ortszeit Schneehöhe (cm)
Mo, 16.09. 20:00 -
Mo, 16.09. 14:00 -
Mo, 16.09. 8:00 -
Mo, 16.09. 2:00 -
So, 15.09. 20:00 -
So, 15.09. 14:00 -
So, 15.09. 8:00 -
So, 15.09. 2:00 -
Ortszeit Schneehöhe (cm)
Mo, 16.09. 23:40 -
Mo, 16.09. 23:30 -
Mo, 16.09. 23:20 -
Mo, 16.09. 23:10 -
Mo, 16.09. 23:00 -
Mo, 16.09. 22:50 -
Mo, 16.09. 22:30 -
Mo, 16.09. 22:00 -
Mo, 16.09. 21:30 -
Mo, 16.09. 21:00 -
Mo, 16.09. 20:30 -
Link zu dieser Seite / Seite empfehlen

Das Wetter in ...